sensor_id;sensor_type;location;lat;lon;timestamp;temperature;humidity
21646;DHT22;10984;45.712;4.800;2023-05-10T00:00:01;12.80;99.90
21646;DHT22;10984;45.712;4.800;2023-05-10T00:02:27;12.80;99.90
21646;DHT22;10984;45.712;4.800;2023-05-10T00:04:53;12.90;99.90
21646;DHT22;10984;45.712;4.800;2023-05-10T00:07:18;12.80;99.90
21646;DHT22;10984;45.712;4.800;2023-05-10T00:09:44;12.90;99.90
21646;DHT22;10984;45.712;4.800;2023-05-10T00:12:10;12.90;99.90
21646;DHT22;10984;45.712;4.800;2023-05-10T00:14:35;13.00;99.90
21646;DHT22;10984;45.712;4.800;2023-05-10T00:17:01;13.10;99.90
21646;DHT22;10984;45.712;4.800;2023-05-10T00:19:26;13.10;99.90
21646;DHT22;10984;45.712;4.800;2023-05-10T00:21:52;13.10;99.90
21646;DHT22;10984;45.712;4.800;2023-05-10T00:24:18;13.10;99.90
21646;DHT22;10984;45.712;4.800;2023-05-10T00:26:43;13.10;99.90
21646;DHT22;10984;45.712;4.800;2023-05-10T00:29:09;13.10;99.90
21646;DHT22;10984;45.712;4.800;2023-05-10T00:31:35;13.10;99.90
21646;DHT22;10984;45.712;4.800;2023-05-10T00:34:00;13.00;99.90
21646;DHT22;10984;45.712;4.800;2023-05-10T00:36:26;13.00;99.90
21646;DHT22;10984;45.712;4.800;2023-05-10T00:38:53;12.90;99.90
21646;DHT22;10984;45.712;4.800;2023-05-10T00:41:18;13.00;99.90
21646;DHT22;10984;45.712;4.800;2023-05-10T00:43:44;12.90;99.90
21646;DHT22;10984;45.712;4.800;2023-05-10T00:46:10;12.80;99.90
21646;DHT22;10984;45.712;4.800;2023-05-10T00:48:36;12.70;99.90
21646;DHT22;10984;45.712;4.800;2023-05-10T00:51:02;12.60;99.90
21646;DHT22;10984;45.712;4.800;2023-05-10T00:53:29;12.60;99.90
21646;DHT22;10984;45.712;4.800;2023-05-10T00:55:56;12.60;99.90
21646;DHT22;10984;45.712;4.800;2023-05-10T00:58:21;12.60;99.90
21646;DHT22;10984;45.712;4.800;2023-05-10T01:00:49;12.60;99.90
21646;DHT22;10984;45.712;4.800;2023-05-10T01:03:15;12.60;99.90
21646;DHT22;10984;45.712;4.800;2023-05-10T01:05:42;12.60;99.90
21646;DHT22;10984;45.712;4.800;2023-05-10T01:08:08;12.50;99.90
21646;DHT22;10984;45.712;4.800;2023-05-10T01:10:34;12.50;99.90
21646;DHT22;10984;45.712;4.800;2023-05-10T01:13:00;12.50;99.90
21646;DHT22;10984;45.712;4.800;2023-05-10T01:15:26;12.50;99.90
21646;DHT22;10984;45.712;4.800;2023-05-10T01:17:52;12.60;99.90
21646;DHT22;10984;45.712;4.800;2023-05-10T01:20:18;12.50;99.90
21646;DHT22;10984;45.712;4.800;2023-05-10T01:40:35;12.70;99.90
21646;DHT22;10984;45.712;4.800;2023-05-10T01:43:03;12.70;99.90
21646;DHT22;10984;45.712;4.800;2023-05-10T01:45:36;12.70;99.90
21646;DHT22;10984;45.712;4.800;2023-05-10T01:48:21;12.70;99.90
21646;DHT22;10984;45.712;4.800;2023-05-10T01:50:48;12.70;99.90
21646;DHT22;10984;45.712;4.800;2023-05-10T01:53:18;12.60;99.90
21646;DHT22;10984;45.712;4.800;2023-05-10T01:55:48;12.70;99.90
21646;DHT22;10984;45.712;4.800;2023-05-10T02:01:03;12.60;99.90
21646;DHT22;10984;45.712;4.800;2023-05-10T02:03:31;12.60;99.90
21646;DHT22;10984;45.712;4.800;2023-05-10T02:05:57;12.60;99.90
21646;DHT22;10984;45.712;4.800;2023-05-10T02:08:24;12.70;99.90
21646;DHT22;10984;45.712;4.800;2023-05-10T02:10:54;12.70;99.90
21646;DHT22;10984;45.712;4.800;2023-05-10T02:13:21;12.70;99.90
21646;DHT22;10984;45.712;4.800;2023-05-10T02:15:48;12.70;99.90
21646;DHT22;10984;45.712;4.800;2023-05-10T02:18:15;12.80;99.90
21646;DHT22;10984;45.712;4.800;2023-05-10T02:20:44;12.70;99.90
21646;DHT22;10984;45.712;4.800;2023-05-10T02:23:11;12.70;99.90
21646;DHT22;10984;45.712;4.800;2023-05-10T02:25:37;12.70;99.90
21646;DHT22;10984;45.712;4.800;2023-05-10T02:28:05;12.60;99.90
21646;DHT22;10984;45.712;4.800;2023-05-10T02:30:33;12.60;99.90
21646;DHT22;10984;45.712;4.800;2023-05-10T02:32:59;12.50;99.90
21646;DHT22;10984;45.712;4.800;2023-05-10T02:35:27;12.50;99.90
21646;DHT22;10984;45.712;4.800;2023-05-10T02:37:53;12.50;99.90
21646;DHT22;10984;45.712;4.800;2023-05-10T02:40:19;12.50;99.90
21646;DHT22;10984;45.712;4.800;2023-05-10T02:42:47;12.50;99.90
21646;DHT22;10984;45.712;4.800;2023-05-10T02:45:20;12.50;99.90
21646;DHT22;10984;45.712;4.800;2023-05-10T02:47:47;12.50;99.90
21646;DHT22;10984;45.712;4.800;2023-05-10T02:50:13;12.40;99.90
21646;DHT22;10984;45.712;4.800;2023-05-10T02:52:46;12.40;99.90
21646;DHT22;10984;45.712;4.800;2023-05-10T02:55:15;12.30;99.90
21646;DHT22;10984;45.712;4.800;2023-05-10T02:58:02;12.30;99.90
21646;DHT22;10984;45.712;4.800;2023-05-10T03:00:28;12.20;99.90
21646;DHT22;10984;45.712;4.800;2023-05-10T03:02:54;12.20;99.90
21646;DHT22;10984;45.712;4.800;2023-05-10T03:05:20;12.10;99.90
21646;DHT22;10984;45.712;4.800;2023-05-10T03:07:46;11.90;99.90
21646;DHT22;10984;45.712;4.800;2023-05-10T03:10:12;11.90;99.90
21646;DHT22;10984;45.712;4.800;2023-05-10T03:16:05;11.80;99.90
21646;DHT22;10984;45.712;4.800;2023-05-10T03:18:54;11.70;99.90
21646;DHT22;10984;45.712;4.800;2023-05-10T03:21:22;11.70;99.90
21646;DHT22;10984;45.712;4.800;2023-05-10T03:23:56;11.60;99.90
21646;DHT22;10984;45.712;4.800;2023-05-10T03:26:26;11.60;99.90
21646;DHT22;10984;45.712;4.800;2023-05-10T03:28:52;11.60;99.90
21646;DHT22;10984;45.712;4.800;2023-05-10T03:31:19;11.60;99.90
21646;DHT22;10984;45.712;4.800;2023-05-10T03:34:03;11.60;99.90
21646;DHT22;10984;45.712;4.800;2023-05-10T03:36:28;11.60;99.90
21646;DHT22;10984;45.712;4.800;2023-05-10T03:38:54;11.50;99.90
21646;DHT22;10984;45.712;4.800;2023-05-10T03:41:20;11.50;99.90
21646;DHT22;10984;45.712;4.800;2023-05-10T03:43:46;11.40;99.90
21646;DHT22;10984;45.712;4.800;2023-05-10T03:46:11;11.40;99.90
21646;DHT22;10984;45.712;4.800;2023-05-10T03:48:37;11.30;99.90
21646;DHT22;10984;45.712;4.800;2023-05-10T03:51:02;11.30;99.90
21646;DHT22;10984;45.712;4.800;2023-05-10T03:53:28;11.20;99.90
21646;DHT22;10984;45.712;4.800;2023-05-10T03:55:54;11.10;99.90
21646;DHT22;10984;45.712;4.800;2023-05-10T03:58:19;11.10;99.90
21646;DHT22;10984;45.712;4.800;2023-05-10T04:00:45;11.00;99.90
21646;DHT22;10984;45.712;4.800;2023-05-10T04:03:12;11.00;99.90
21646;DHT22;10984;45.712;4.800;2023-05-10T04:05:37;10.90;99.90
21646;DHT22;10984;45.712;4.800;2023-05-10T04:08:04;10.80;99.90
21646;DHT22;10984;45.712;4.800;2023-05-10T04:10:30;10.80;99.90
21646;DHT22;10984;45.712;4.800;2023-05-10T04:12:55;10.70;99.90
21646;DHT22;10984;45.712;4.800;2023-05-10T04:15:21;10.70;99.90
21646;DHT22;10984;45.712;4.800;2023-05-10T04:17:47;10.60;99.90
21646;DHT22;10984;45.712;4.800;2023-05-10T04:20:12;10.60;99.90
21646;DHT22;10984;45.712;4.800;2023-05-10T04:22:38;10.50;99.90
21646;DHT22;10984;45.712;4.800;2023-05-10T04:25:04;10.60;99.90
21646;DHT22;10984;45.712;4.800;2023-05-10T04:27:30;10.60;99.90
21646;DHT22;10984;45.712;4.800;2023-05-10T04:29:56;10.60;99.90
21646;DHT22;10984;45.712;4.800;2023-05-10T04:32:22;10.60;99.90
21646;DHT22;10984;45.712;4.800;2023-05-10T04:34:48;10.60;99.90
21646;DHT22;10984;45.712;4.800;2023-05-10T04:37:14;10.60;99.90
21646;DHT22;10984;45.712;4.800;2023-05-10T04:39:39;10.60;99.90
21646;DHT22;10984;45.712;4.800;2023-05-10T04:42:05;10.70;99.90
21646;DHT22;10984;45.712;4.800;2023-05-10T04:44:31;10.80;99.90
21646;DHT22;10984;45.712;4.800;2023-05-10T04:46:57;10.90;99.90
21646;DHT22;10984;45.712;4.800;2023-05-10T04:49:23;11.20;99.90
21646;DHT22;10984;45.712;4.800;2023-05-10T04:51:48;11.70;99.90
21646;DHT22;10984;45.712;4.800;2023-05-10T04:54:14;12.00;99.90
21646;DHT22;10984;45.712;4.800;2023-05-10T04:56:40;12.40;99.90
21646;DHT22;10984;45.712;4.800;2023-05-10T04:59:06;12.60;99.90
21646;DHT22;10984;45.712;4.800;2023-05-10T05:01:32;12.90;99.90
21646;DHT22;10984;45.712;4.800;2023-05-10T05:03:58;13.30;99.90
21646;DHT22;10984;45.712;4.800;2023-05-10T05:06:23;13.80;99.90
21646;DHT22;10984;45.712;4.800;2023-05-10T05:08:50;14.50;99.90
21646;DHT22;10984;45.712;4.800;2023-05-10T05:11:16;15.30;99.90
21646;DHT22;10984;45.712;4.800;2023-05-10T05:13:42;16.00;99.90
21646;DHT22;10984;45.712;4.800;2023-05-10T05:16:08;16.90;99.90
21646;DHT22;10984;45.712;4.800;2023-05-10T05:18:34;16.70;99.90
21646;DHT22;10984;45.712;4.800;2023-05-10T05:21:00;17.60;14.10
21646;DHT22;10984;45.712;4.800;2023-05-10T05:23:26;17.80;17.90
21646;DHT22;10984;45.712;4.800;2023-05-10T05:25:52;18.10;1.00
21646;DHT22;10984;45.712;4.800;2023-05-10T05:28:19;18.40;1.00
21646;DHT22;10984;45.712;4.800;2023-05-10T05:30:45;18.40;1.00
21646;DHT22;10984;45.712;4.800;2023-05-10T05:33:12;17.40;1.00
21646;DHT22;10984;45.712;4.800;2023-05-10T05:35:38;16.80;40.20
21646;DHT22;10984;45.712;4.800;2023-05-10T05:38:04;18.00;17.10
21646;DHT22;10984;45.712;4.800;2023-05-10T05:40:29;18.10;1.00
21646;DHT22;10984;45.712;4.800;2023-05-10T05:42:55;19.20;1.00
21646;DHT22;10984;45.712;4.800;2023-05-10T05:45:20;20.10;1.00
21646;DHT22;10984;45.712;4.800;2023-05-10T05:47:46;21.20;1.00
21646;DHT22;10984;45.712;4.800;2023-05-10T05:50:12;22.20;1.00
21646;DHT22;10984;45.712;4.800;2023-05-10T05:52:38;23.20;1.00
21646;DHT22;10984;45.712;4.800;2023-05-10T05:55:04;23.40;1.00
21646;DHT22;10984;45.712;4.800;2023-05-10T05:57:29;24.00;1.00
21646;DHT22;10984;45.712;4.800;2023-05-10T05:59:55;24.50;1.00
21646;DHT22;10984;45.712;4.800;2023-05-10T06:02:21;25.00;99.90
21646;DHT22;10984;45.712;4.800;2023-05-10T06:04:47;24.90;79.30
21646;DHT22;10984;45.712;4.800;2023-05-10T06:07:12;25.40;99.90
21646;DHT22;10984;45.712;4.800;2023-05-10T06:09:38;25.90;1.00
21646;DHT22;10984;45.712;4.800;2023-05-10T06:12:03;25.50;99.90
21646;DHT22;10984;45.712;4.800;2023-05-10T06:14:29;25.70;1.00
21646;DHT22;10984;45.712;4.800;2023-05-10T06:16:55;25.20;1.00
21646;DHT22;10984;45.712;4.800;2023-05-10T06:19:20;25.10;1.00
21646;DHT22;10984;45.712;4.800;2023-05-10T06:21:46;25.20;99.90
21646;DHT22;10984;45.712;4.800;2023-05-10T06:24:11;24.70;99.90
21646;DHT22;10984;45.712;4.800;2023-05-10T06:26:37;25.10;99.90
21646;DHT22;10984;45.712;4.800;2023-05-10T06:29:03;25.50;1.00
21646;DHT22;10984;45.712;4.800;2023-05-10T06:31:28;25.40;1.00
21646;DHT22;10984;45.712;4.800;2023-05-10T06:33:54;25.30;1.00
21646;DHT22;10984;45.712;4.800;2023-05-10T06:36:19;25.10;99.90
21646;DHT22;10984;45.712;4.800;2023-05-10T06:38:45;24.50;1.00
21646;DHT22;10984;45.712;4.800;2023-05-10T06:41:11;24.10;1.00
21646;DHT22;10984;45.712;4.800;2023-05-10T06:43:37;23.10;99.90
21646;DHT22;10984;45.712;4.800;2023-05-10T06:46:05;23.70;1.00
21646;DHT22;10984;45.712;4.800;2023-05-10T06:48:31;23.70;1.00
21646;DHT22;10984;45.712;4.800;2023-05-10T06:50:57;22.80;99.90
21646;DHT22;10984;45.712;4.800;2023-05-10T06:53:23;23.80;1.00
21646;DHT22;10984;45.712;4.800;2023-05-10T06:55:49;23.80;1.00
21646;DHT22;10984;45.712;4.800;2023-05-10T06:58:15;23.40;1.00
21646;DHT22;10984;45.712;4.800;2023-05-10T07:00:41;24.10;1.00
21646;DHT22;10984;45.712;4.800;2023-05-10T07:03:09;24.10;1.00
21646;DHT22;10984;45.712;4.800;2023-05-10T07:05:35;23.30;1.00
21646;DHT22;10984;45.712;4.800;2023-05-10T07:08:01;23.40;1.00
21646;DHT22;10984;45.712;4.800;2023-05-10T07:10:27;23.10;1.00
21646;DHT22;10984;45.712;4.800;2023-05-10T07:12:52;22.90;1.00
21646;DHT22;10984;45.712;4.800;2023-05-10T07:15:18;22.30;99.90
21646;DHT22;10984;45.712;4.800;2023-05-10T07:17:44;21.50;99.90
21646;DHT22;10984;45.712;4.800;2023-05-10T07:20:09;20.60;1.00
21646;DHT22;10984;45.712;4.800;2023-05-10T07:22:35;20.20;1.00
21646;DHT22;10984;45.712;4.800;2023-05-10T07:25:01;19.90;1.00
21646;DHT22;10984;45.712;4.800;2023-05-10T07:27:27;19.80;1.00
21646;DHT22;10984;45.712;4.800;2023-05-10T07:29:53;20.00;1.00
21646;DHT22;10984;45.712;4.800;2023-05-10T07:32:20;19.60;1.00
21646;DHT22;10984;45.712;4.800;2023-05-10T07:34:45;18.80;1.00
21646;DHT22;10984;45.712;4.800;2023-05-10T07:37:11;18.50;1.00
21646;DHT22;10984;45.712;4.800;2023-05-10T07:39:37;18.30;1.00
21646;DHT22;10984;45.712;4.800;2023-05-10T07:42:03;18.20;1.00
21646;DHT22;10984;45.712;4.800;2023-05-10T07:44:29;18.10;1.00
21646;DHT22;10984;45.712;4.800;2023-05-10T07:46:54;18.00;1.00
21646;DHT22;10984;45.712;4.800;2023-05-10T07:49:21;17.90;1.00
21646;DHT22;10984;45.712;4.800;2023-05-10T07:51:46;17.60;1.00
21646;DHT22;10984;45.712;4.800;2023-05-10T07:54:13;17.20;1.00
21646;DHT22;10984;45.712;4.800;2023-05-10T07:56:39;17.00;1.00
21646;DHT22;10984;45.712;4.800;2023-05-10T07:59:07;17.00;1.00
21646;DHT22;10984;45.712;4.800;2023-05-10T08:01:34;16.80;1.00
21646;DHT22;10984;45.712;4.800;2023-05-10T08:04:00;16.50;1.00
21646;DHT22;10984;45.712;4.800;2023-05-10T08:06:27;16.40;1.00
21646;DHT22;10984;45.712;4.800;2023-05-10T08:08:55;16.40;1.00
21646;DHT22;10984;45.712;4.800;2023-05-10T08:11:20;16.40;1.00
21646;DHT22;10984;45.712;4.800;2023-05-10T08:13:47;16.50;1.00
21646;DHT22;10984;45.712;4.800;2023-05-10T08:16:13;16.60;1.00
21646;DHT22;10984;45.712;4.800;2023-05-10T08:18:39;16.60;1.00
21646;DHT22;10984;45.712;4.800;2023-05-10T08:21:05;16.60;1.00
21646;DHT22;10984;45.712;4.800;2023-05-10T08:23:31;16.70;1.00
21646;DHT22;10984;45.712;4.800;2023-05-10T08:25:57;16.70;1.00
21646;DHT22;10984;45.712;4.800;2023-05-10T08:28:22;16.70;1.00
21646;DHT22;10984;45.712;4.800;2023-05-10T08:30:49;16.70;1.00
21646;DHT22;10984;45.712;4.800;2023-05-10T08:33:15;16.70;1.00
21646;DHT22;10984;45.712;4.800;2023-05-10T08:35:41;16.70;1.00
21646;DHT22;10984;45.712;4.800;2023-05-10T08:38:07;16.70;1.00
21646;DHT22;10984;45.712;4.800;2023-05-10T08:40:32;16.90;1.00
21646;DHT22;10984;45.712;4.800;2023-05-10T08:43:16;17.00;1.00
21646;DHT22;10984;45.712;4.800;2023-05-10T08:45:44;17.40;1.00
21646;DHT22;10984;45.712;4.800;2023-05-10T08:48:29;17.70;1.00
21646;DHT22;10984;45.712;4.800;2023-05-10T08:50:58;18.00;1.00
21646;DHT22;10984;45.712;4.800;2023-05-10T08:53:26;17.90;1.00
21646;DHT22;10984;45.712;4.800;2023-05-10T08:55:54;17.90;1.00
21646;DHT22;10984;45.712;4.800;2023-05-10T08:58:21;17.80;1.00
21646;DHT22;10984;45.712;4.800;2023-05-10T09:00:48;17.70;1.00
21646;DHT22;10984;45.712;4.800;2023-05-10T09:03:14;17.50;1.00
21646;DHT22;10984;45.712;4.800;2023-05-10T09:05:40;17.20;1.00
21646;DHT22;10984;45.712;4.800;2023-05-10T09:08:08;16.80;1.00
21646;DHT22;10984;45.712;4.800;2023-05-10T09:10:34;16.60;1.00
21646;DHT22;10984;45.712;4.800;2023-05-10T09:13:00;16.30;1.00
21646;DHT22;10984;45.712;4.800;2023-05-10T09:15:26;16.10;23.00
21646;DHT22;10984;45.712;4.800;2023-05-10T09:17:51;15.90;3.30
21646;DHT22;10984;45.712;4.800;2023-05-10T09:20:17;15.90;26.00
21646;DHT22;10984;45.712;4.800;2023-05-10T09:22:44;15.70;26.80
21646;DHT22;10984;45.712;4.800;2023-05-10T09:25:12;15.60;39.10
21646;DHT22;10984;45.712;4.800;2023-05-10T09:27:39;15.30;61.40
21646;DHT22;10984;45.712;4.800;2023-05-10T09:30:06;15.20;20.20
21646;DHT22;10984;45.712;4.800;2023-05-10T09:32:51;15.30;13.00
21646;DHT22;10984;45.712;4.800;2023-05-10T09:35:19;15.20;66.40
21646;DHT22;10984;45.712;4.800;2023-05-10T09:37:48;15.20;68.80
21646;DHT22;10984;45.712;4.800;2023-05-10T09:40:16;15.30;90.50
21646;DHT22;10984;45.712;4.800;2023-05-10T09:45:36;15.40;5.00
21646;DHT22;10984;45.712;4.800;2023-05-10T09:48:02;15.70;24.80
21646;DHT22;10984;45.712;4.800;2023-05-10T09:50:29;16.20;8.20
21646;DHT22;10984;45.712;4.800;2023-05-10T09:53:14;16.70;9.30
21646;DHT22;10984;45.712;4.800;2023-05-10T09:55:42;17.10;1.00
21646;DHT22;10984;45.712;4.800;2023-05-10T09:58:27;17.40;1.00
21646;DHT22;10984;45.712;4.800;2023-05-10T10:00:53;17.50;1.00
21646;DHT22;10984;45.712;4.800;2023-05-10T10:03:22;17.70;1.00
21646;DHT22;10984;45.712;4.800;2023-05-10T10:05:49;17.60;1.00
21646;DHT22;10984;45.712;4.800;2023-05-10T10:08:15;17.50;1.00
21646;DHT22;10984;45.712;4.800;2023-05-10T10:10:42;17.60;1.00
21646;DHT22;10984;45.712;4.800;2023-05-10T10:13:10;17.70;1.00
21646;DHT22;10984;45.712;4.800;2023-05-10T10:15:35;18.00;1.00
21646;DHT22;10984;45.712;4.800;2023-05-10T10:18:01;18.00;1.00
21646;DHT22;10984;45.712;4.800;2023-05-10T10:20:29;18.10;1.00
21646;DHT22;10984;45.712;4.800;2023-05-10T10:22:55;18.40;1.00
21646;DHT22;10984;45.712;4.800;2023-05-10T10:25:21;18.40;1.00
21646;DHT22;10984;45.712;4.800;2023-05-10T10:28:26;18.50;1.00
21646;DHT22;10984;45.712;4.800;2023-05-10T10:30:55;18.20;1.00
21646;DHT22;10984;45.712;4.800;2023-05-10T10:33:50;18.20;1.00
21646;DHT22;10984;45.712;4.800;2023-05-10T10:36:17;18.50;1.00
21646;DHT22;10984;45.712;4.800;2023-05-10T10:39:01;18.60;1.00
21646;DHT22;10984;45.712;4.800;2023-05-10T10:52:46;17.90;1.00
21646;DHT22;10984;45.712;4.800;2023-05-10T10:55:17;17.80;1.00
21646;DHT22;10984;45.712;4.800;2023-05-10T10:58:02;17.70;1.00
21646;DHT22;10984;45.712;4.800;2023-05-10T11:00:48;17.60;1.00
21646;DHT22;10984;45.712;4.800;2023-05-10T11:03:15;17.40;1.00
21646;DHT22;10984;45.712;4.800;2023-05-10T11:08:30;16.90;1.00
21646;DHT22;10984;45.712;4.800;2023-05-10T11:11:14;16.90;1.00
21646;DHT22;10984;45.712;4.800;2023-05-10T11:16:26;17.10;1.00
21646;DHT22;10984;45.712;4.800;2023-05-10T11:19:12;17.50;1.00
21646;DHT22;10984;45.712;4.800;2023-05-10T11:24:56;18.30;1.00
21646;DHT22;10984;45.712;4.800;2023-05-10T11:27:22;18.80;1.00
21646;DHT22;10984;45.712;4.800;2023-05-10T11:29:51;19.30;1.00
21646;DHT22;10984;45.712;4.800;2023-05-10T11:32:19;19.20;1.00
21646;DHT22;10984;45.712;4.800;2023-05-10T11:34:47;18.90;1.00
21646;DHT22;10984;45.712;4.800;2023-05-10T11:37:13;19.00;1.00
21646;DHT22;10984;45.712;4.800;2023-05-10T11:39:45;19.00;1.00
21646;DHT22;10984;45.712;4.800;2023-05-10T11:42:12;19.10;1.00
21646;DHT22;10984;45.712;4.800;2023-05-10T11:44:38;18.90;1.00
21646;DHT22;10984;45.712;4.800;2023-05-10T11:47:04;18.70;1.00
21646;DHT22;10984;45.712;4.800;2023-05-10T11:49:30;18.60;1.00
21646;DHT22;10984;45.712;4.800;2023-05-10T11:52:15;18.40;1.00
21646;DHT22;10984;45.712;4.800;2023-05-10T11:54:59;18.40;1.00
21646;DHT22;10984;45.712;4.800;2023-05-10T11:57:26;18.30;1.00
21646;DHT22;10984;45.712;4.800;2023-05-10T11:59:53;18.10;1.00
21646;DHT22;10984;45.712;4.800;2023-05-10T12:02:20;18.00;1.00
21646;DHT22;10984;45.712;4.800;2023-05-10T12:04:46;18.10;1.00
21646;DHT22;10984;45.712;4.800;2023-05-10T12:07:12;18.20;1.00
21646;DHT22;10984;45.712;4.800;2023-05-10T12:12:26;18.00;1.00
21646;DHT22;10984;45.712;4.800;2023-05-10T12:14:52;18.10;1.00
21646;DHT22;10984;45.712;4.800;2023-05-10T12:17:17;18.00;1.00
21646;DHT22;10984;45.712;4.800;2023-05-10T12:19:43;18.20;1.00
21646;DHT22;10984;45.712;4.800;2023-05-10T12:22:09;18.30;1.00
21646;DHT22;10984;45.712;4.800;2023-05-10T12:24:36;18.80;1.00
21646;DHT22;10984;45.712;4.800;2023-05-10T12:27:22;19.10;1.00
21646;DHT22;10984;45.712;4.800;2023-05-10T12:29:48;19.30;1.00
21646;DHT22;10984;45.712;4.800;2023-05-10T12:32:13;19.40;1.00
21646;DHT22;10984;45.712;4.800;2023-05-10T12:34:39;19.30;1.00
21646;DHT22;10984;45.712;4.800;2023-05-10T12:37:05;19.70;1.00
21646;DHT22;10984;45.712;4.800;2023-05-10T12:39:49;19.50;1.00
21646;DHT22;10984;45.712;4.800;2023-05-10T12:42:15;19.50;99.90
21646;DHT22;10984;45.712;4.800;2023-05-10T12:44:40;19.60;1.00
21646;DHT22;10984;45.712;4.800;2023-05-10T12:47:06;19.70;1.00
21646;DHT22;10984;45.712;4.800;2023-05-10T12:49:31;19.60;99.90
21646;DHT22;10984;45.712;4.800;2023-05-10T12:51:57;19.60;1.00
21646;DHT22;10984;45.712;4.800;2023-05-10T12:54:23;19.60;1.00
21646;DHT22;10984;45.712;4.800;2023-05-10T12:56:48;19.60;1.00
21646;DHT22;10984;45.712;4.800;2023-05-10T12:59:14;19.40;1.00
21646;DHT22;10984;45.712;4.800;2023-05-10T13:01:39;18.90;1.00
21646;DHT22;10984;45.712;4.800;2023-05-10T13:04:05;18.80;1.00
21646;DHT22;10984;45.712;4.800;2023-05-10T13:06:31;18.80;1.00
21646;DHT22;10984;45.712;4.800;2023-05-10T13:08:57;18.80;1.00
21646;DHT22;10984;45.712;4.800;2023-05-10T13:11:23;18.90;1.00
21646;DHT22;10984;45.712;4.800;2023-05-10T13:13:48;18.80;1.00
21646;DHT22;10984;45.712;4.800;2023-05-10T13:16:14;19.00;1.00
21646;DHT22;10984;45.712;4.800;2023-05-10T13:18:39;18.90;1.00
21646;DHT22;10984;45.712;4.800;2023-05-10T13:21:05;18.80;1.00
21646;DHT22;10984;45.712;4.800;2023-05-10T13:23:31;19.10;1.00
21646;DHT22;10984;45.712;4.800;2023-05-10T13:25:56;19.30;1.00
21646;DHT22;10984;45.712;4.800;2023-05-10T13:28:22;19.40;1.00
21646;DHT22;10984;45.712;4.800;2023-05-10T13:30:48;19.10;1.00
21646;DHT22;10984;45.712;4.800;2023-05-10T13:33:13;19.30;1.00
21646;DHT22;10984;45.712;4.800;2023-05-10T13:35:39;19.50;1.00
21646;DHT22;10984;45.712;4.800;2023-05-10T13:38:05;19.80;1.00
21646;DHT22;10984;45.712;4.800;2023-05-10T13:40:33;20.00;1.00
21646;DHT22;10984;45.712;4.800;2023-05-10T13:42:59;20.10;99.90
21646;DHT22;10984;45.712;4.800;2023-05-10T13:45:24;20.20;1.00
21646;DHT22;10984;45.712;4.800;2023-05-10T13:47:50;20.40;99.90
21646;DHT22;10984;45.712;4.800;2023-05-10T13:50:16;20.60;99.90
21646;DHT22;10984;45.712;4.800;2023-05-10T13:52:42;20.80;99.90
21646;DHT22;10984;45.712;4.800;2023-05-10T13:55:08;20.40;99.90
21646;DHT22;10984;45.712;4.800;2023-05-10T13:57:33;20.40;99.90
21646;DHT22;10984;45.712;4.800;2023-05-10T14:00:01;20.40;99.90
21646;DHT22;10984;45.712;4.800;2023-05-10T14:02:27;20.40;99.90
21646;DHT22;10984;45.712;4.800;2023-05-10T14:04:52;20.10;99.90
21646;DHT22;10984;45.712;4.800;2023-05-10T14:07:18;20.00;99.90
21646;DHT22;10984;45.712;4.800;2023-05-10T14:09:44;19.50;1.00
21646;DHT22;10984;45.712;4.800;2023-05-10T14:12:10;19.20;1.00
21646;DHT22;10984;45.712;4.800;2023-05-10T14:14:35;19.10;1.00
21646;DHT22;10984;45.712;4.800;2023-05-10T14:17:01;18.90;1.00
21646;DHT22;10984;45.712;4.800;2023-05-10T14:19:26;18.80;1.00
21646;DHT22;10984;45.712;4.800;2023-05-10T14:21:53;18.50;1.00
21646;DHT22;10984;45.712;4.800;2023-05-10T14:24:18;18.30;1.00
21646;DHT22;10984;45.712;4.800;2023-05-10T14:26:44;18.50;1.00
21646;DHT22;10984;45.712;4.800;2023-05-10T14:29:09;18.60;1.00
21646;DHT22;10984;45.712;4.800;2023-05-10T14:31:35;18.70;1.00
21646;DHT22;10984;45.712;4.800;2023-05-10T14:34:01;18.50;1.00
21646;DHT22;10984;45.712;4.800;2023-05-10T14:36:26;18.50;1.00
21646;DHT22;10984;45.712;4.800;2023-05-10T14:38:52;18.40;1.00
21646;DHT22;10984;45.712;4.800;2023-05-10T14:41:18;18.50;1.00
21646;DHT22;10984;45.712;4.800;2023-05-10T14:43:43;18.50;1.00
21646;DHT22;10984;45.712;4.800;2023-05-10T14:46:09;18.60;1.00
21646;DHT22;10984;45.712;4.800;2023-05-10T14:48:35;18.60;1.00
21646;DHT22;10984;45.712;4.800;2023-05-10T14:51:01;18.80;1.00
21646;DHT22;10984;45.712;4.800;2023-05-10T14:53:27;19.00;1.00
21646;DHT22;10984;45.712;4.800;2023-05-10T14:55:52;19.30;1.00
21646;DHT22;10984;45.712;4.800;2023-05-10T14:58:18;19.20;1.00
21646;DHT22;10984;45.712;4.800;2023-05-10T15:00:43;19.30;1.00
21646;DHT22;10984;45.712;4.800;2023-05-10T15:03:09;19.30;1.00
21646;DHT22;10984;45.712;4.800;2023-05-10T15:05:35;19.50;1.00
21646;DHT22;10984;45.712;4.800;2023-05-10T15:08:02;19.70;1.00
21646;DHT22;10984;45.712;4.800;2023-05-10T15:10:28;19.60;1.00
21646;DHT22;10984;45.712;4.800;2023-05-10T15:12:54;19.60;1.00
21646;DHT22;10984;45.712;4.800;2023-05-10T15:15:19;19.40;1.00
21646;DHT22;10984;45.712;4.800;2023-05-10T15:17:45;19.30;1.00
21646;DHT22;10984;45.712;4.800;2023-05-10T15:20:11;18.90;1.00
21646;DHT22;10984;45.712;4.800;2023-05-10T15:22:37;18.60;1.00
21646;DHT22;10984;45.712;4.800;2023-05-10T15:25:03;18.40;1.00
21646;DHT22;10984;45.712;4.800;2023-05-10T15:27:29;18.30;1.00
21646;DHT22;10984;45.712;4.800;2023-05-10T15:29:55;18.10;1.00
21646;DHT22;10984;45.712;4.800;2023-05-10T15:32:21;18.00;1.00
21646;DHT22;10984;45.712;4.800;2023-05-10T15:34:47;18.00;1.00
21646;DHT22;10984;45.712;4.800;2023-05-10T15:37:12;18.00;1.00
21646;DHT22;10984;45.712;4.800;2023-05-10T15:39:38;18.00;1.00
21646;DHT22;10984;45.712;4.800;2023-05-10T15:42:04;18.10;1.00
21646;DHT22;10984;45.712;4.800;2023-05-10T15:44:29;18.10;1.00
21646;DHT22;10984;45.712;4.800;2023-05-10T15:46:55;18.20;1.00
21646;DHT22;10984;45.712;4.800;2023-05-10T15:49:21;18.30;1.00
21646;DHT22;10984;45.712;4.800;2023-05-10T15:51:46;18.40;1.00
21646;DHT22;10984;45.712;4.800;2023-05-10T15:54:12;18.40;1.00
21646;DHT22;10984;45.712;4.800;2023-05-10T15:56:38;18.50;1.00
21646;DHT22;10984;45.712;4.800;2023-05-10T15:59:04;18.50;1.00
21646;DHT22;10984;45.712;4.800;2023-05-10T16:01:30;18.60;1.00
21646;DHT22;10984;45.712;4.800;2023-05-10T16:03:57;18.60;1.00
21646;DHT22;10984;45.712;4.800;2023-05-10T16:06:22;18.80;1.00
21646;DHT22;10984;45.712;4.800;2023-05-10T16:08:48;18.80;1.00
21646;DHT22;10984;45.712;4.800;2023-05-10T16:11:14;18.90;1.00
21646;DHT22;10984;45.712;4.800;2023-05-10T16:13:39;18.90;1.00
21646;DHT22;10984;45.712;4.800;2023-05-10T16:16:05;19.00;1.00
21646;DHT22;10984;45.712;4.800;2023-05-10T16:18:33;19.00;1.00
21646;DHT22;10984;45.712;4.800;2023-05-10T16:20:59;19.20;1.00
21646;DHT22;10984;45.712;4.800;2023-05-10T16:23:26;19.10;1.00
21646;DHT22;10984;45.712;4.800;2023-05-10T16:25:52;18.90;1.00
21646;DHT22;10984;45.712;4.800;2023-05-10T16:28:18;18.90;1.00